sensor_id;sensor_type;location;lat;lon;timestamp;P1;durP1;ratioP1;P2;durP2;ratioP2
3068;SDS011;1545;51.728;8.796;2023-08-31T00:00:08;44.03;;;20.40;;
3068;SDS011;1545;51.728;8.796;2023-08-31T00:02:38;60.83;;;21.13;;
3068;SDS011;1545;51.728;8.796;2023-08-31T00:05:05;47.90;;;21.17;;
3068;SDS011;1545;51.728;8.796;2023-08-31T00:07:31;61.53;;;22.10;;
3068;SDS011;1545;51.728;8.796;2023-08-31T00:09:57;41.73;;;19.90;;
3068;SDS011;1545;51.728;8.796;2023-08-31T00:12:23;46.87;;;19.87;;
3068;SDS011;1545;51.728;8.796;2023-08-31T00:14:49;41.37;;;20.17;;
3068;SDS011;1545;51.728;8.796;2023-08-31T00:17:15;79.53;;;21.10;;
3068;SDS011;1545;51.728;8.796;2023-08-31T00:19:41;45.57;;;19.80;;
3068;SDS011;1545;51.728;8.796;2023-08-31T00:22:06;39.97;;;19.70;;
3068;SDS011;1545;51.728;8.796;2023-08-31T00:24:32;54.70;;;20.60;;
3068;SDS011;1545;51.728;8.796;2023-08-31T00:27:02;46.87;;;20.43;;
3068;SDS011;1545;51.728;8.796;2023-08-31T00:29:28;39.83;;;19.70;;
3068;SDS011;1545;51.728;8.796;2023-08-31T00:31:54;41.23;;;19.97;;
3068;SDS011;1545;51.728;8.796;2023-08-31T00:34:20;48.73;;;20.77;;
3068;SDS011;1545;51.728;8.796;2023-08-31T00:36:46;56.77;;;21.60;;
3068;SDS011;1545;51.728;8.796;2023-08-31T00:39:11;45.47;;;20.17;;
3068;SDS011;1545;51.728;8.796;2023-08-31T00:41:37;47.50;;;19.80;;
3068;SDS011;1545;51.728;8.796;2023-08-31T00:44:03;55.57;;;21.17;;
3068;SDS011;1545;51.728;8.796;2023-08-31T00:46:30;53.37;;;21.27;;
3068;SDS011;1545;51.728;8.796;2023-08-31T00:48:56;55.13;;;22.13;;
3068;SDS011;1545;51.728;8.796;2023-08-31T00:51:23;57.77;;;22.57;;
3068;SDS011;1545;51.728;8.796;2023-08-31T00:53:50;54.77;;;22.97;;
3068;SDS011;1545;51.728;8.796;2023-08-31T00:56:18;52.30;;;22.40;;
3068;SDS011;1545;51.728;8.796;2023-08-31T00:58:44;53.97;;;22.60;;
3068;SDS011;1545;51.728;8.796;2023-08-31T01:01:24;63.67;;;22.53;;
3068;SDS011;1545;51.728;8.796;2023-08-31T01:12:09;62.23;;;24.27;;
3068;SDS011;1545;51.728;8.796;2023-08-31T01:14:59;75.13;;;25.03;;
3068;SDS011;1545;51.728;8.796;2023-08-31T01:17:31;58.00;;;25.07;;
3068;SDS011;1545;51.728;8.796;2023-08-31T01:19:59;53.67;;;23.47;;
3068;SDS011;1545;51.728;8.796;2023-08-31T01:22:32;60.57;;;24.40;;
3068;SDS011;1545;51.728;8.796;2023-08-31T01:25:05;48.37;;;23.27;;
3068;SDS011;1545;51.728;8.796;2023-08-31T01:27:34;50.77;;;23.00;;
3068;SDS011;1545;51.728;8.796;2023-08-31T01:30:00;46.83;;;23.03;;
3068;SDS011;1545;51.728;8.796;2023-08-31T01:32:28;61.40;;;23.63;;
3068;SDS011;1545;51.728;8.796;2023-08-31T01:34:53;50.07;;;23.43;;
3068;SDS011;1545;51.728;8.796;2023-08-31T01:38:04;60.73;;;24.27;;
3068;SDS011;1545;51.728;8.796;2023-08-31T01:40:23;57.13;;;24.00;;
3068;SDS011;1545;51.728;8.796;2023-08-31T01:43:05;52.13;;;24.83;;
3068;SDS011;1545;51.728;8.796;2023-08-31T01:45:32;54.13;;;23.83;;
3068;SDS011;1545;51.728;8.796;2023-08-31T01:48:02;52.17;;;23.73;;
3068;SDS011;1545;51.728;8.796;2023-08-31T01:50:29;60.83;;;24.60;;
3068;SDS011;1545;51.728;8.796;2023-08-31T01:52:54;69.20;;;26.53;;
3068;SDS011;1545;51.728;8.796;2023-08-31T01:55:20;67.07;;;25.30;;
3068;SDS011;1545;51.728;8.796;2023-08-31T01:57:47;67.13;;;25.37;;
3068;SDS011;1545;51.728;8.796;2023-08-31T02:00:13;72.00;;;24.20;;
3068;SDS011;1545;51.728;8.796;2023-08-31T02:02:40;65.77;;;24.67;;
3068;SDS011;1545;51.728;8.796;2023-08-31T02:05:07;61.90;;;24.03;;
3068;SDS011;1545;51.728;8.796;2023-08-31T02:07:32;61.83;;;24.20;;
3068;SDS011;1545;51.728;8.796;2023-08-31T02:09:58;56.90;;;23.33;;
3068;SDS011;1545;51.728;8.796;2023-08-31T02:12:24;51.70;;;22.93;;
3068;SDS011;1545;51.728;8.796;2023-08-31T02:14:49;54.67;;;22.77;;
3068;SDS011;1545;51.728;8.796;2023-08-31T02:17:15;51.83;;;23.40;;
3068;SDS011;1545;51.728;8.796;2023-08-31T02:19:40;45.43;;;22.47;;
3068;SDS011;1545;51.728;8.796;2023-08-31T02:22:06;61.13;;;23.00;;
3068;SDS011;1545;51.728;8.796;2023-08-31T02:24:31;52.83;;;22.70;;
3068;SDS011;1545;51.728;8.796;2023-08-31T02:26:57;53.60;;;21.13;;
3068;SDS011;1545;51.728;8.796;2023-08-31T02:29:22;51.17;;;20.83;;
3068;SDS011;1545;51.728;8.796;2023-08-31T02:31:48;51.80;;;21.53;;
3068;SDS011;1545;51.728;8.796;2023-08-31T02:34:13;56.87;;;21.47;;
3068;SDS011;1545;51.728;8.796;2023-08-31T02:36:39;61.03;;;22.53;;
3068;SDS011;1545;51.728;8.796;2023-08-31T02:39:05;52.50;;;21.17;;
3068;SDS011;1545;51.728;8.796;2023-08-31T02:41:31;62.67;;;23.07;;
3068;SDS011;1545;51.728;8.796;2023-08-31T02:43:57;50.00;;;22.30;;
3068;SDS011;1545;51.728;8.796;2023-08-31T02:46:22;49.63;;;21.47;;
3068;SDS011;1545;51.728;8.796;2023-08-31T02:48:48;47.03;;;21.60;;
3068;SDS011;1545;51.728;8.796;2023-08-31T02:51:14;51.20;;;22.03;;
3068;SDS011;1545;51.728;8.796;2023-08-31T02:53:40;53.40;;;22.03;;
3068;SDS011;1545;51.728;8.796;2023-08-31T02:56:06;62.57;;;22.60;;
3068;SDS011;1545;51.728;8.796;2023-08-31T02:58:32;47.63;;;21.70;;
3068;SDS011;1545;51.728;8.796;2023-08-31T03:01:10;47.93;;;21.77;;
3068;SDS011;1545;51.728;8.796;2023-08-31T03:03:40;57.77;;;22.23;;
3068;SDS011;1545;51.728;8.796;2023-08-31T03:06:07;54.13;;;20.60;;
3068;SDS011;1545;51.728;8.796;2023-08-31T03:08:33;43.40;;;19.17;;
3068;SDS011;1545;51.728;8.796;2023-08-31T03:10:59;45.93;;;18.60;;
3068;SDS011;1545;51.728;8.796;2023-08-31T03:13:25;35.47;;;16.00;;
3068;SDS011;1545;51.728;8.796;2023-08-31T03:15:50;34.93;;;15.47;;
3068;SDS011;1545;51.728;8.796;2023-08-31T03:18:16;38.87;;;14.53;;
3068;SDS011;1545;51.728;8.796;2023-08-31T03:20:41;32.93;;;14.40;;
3068;SDS011;1545;51.728;8.796;2023-08-31T03:23:07;24.27;;;12.30;;
3068;SDS011;1545;51.728;8.796;2023-08-31T03:25:34;21.03;;;11.20;;
3068;SDS011;1545;51.728;8.796;2023-08-31T03:27:59;25.67;;;10.97;;
3068;SDS011;1545;51.728;8.796;2023-08-31T03:30:25;21.83;;;10.60;;
3068;SDS011;1545;51.728;8.796;2023-08-31T03:32:50;22.20;;;10.43;;
3068;SDS011;1545;51.728;8.796;2023-08-31T03:35:16;20.60;;;10.63;;
3068;SDS011;1545;51.728;8.796;2023-08-31T03:37:41;23.33;;;11.00;;
3068;SDS011;1545;51.728;8.796;2023-08-31T03:40:07;24.30;;;10.67;;
3068;SDS011;1545;51.728;8.796;2023-08-31T03:42:34;16.83;;;9.30;;
3068;SDS011;1545;51.728;8.796;2023-08-31T03:45:00;21.73;;;9.93;;
3068;SDS011;1545;51.728;8.796;2023-08-31T03:47:26;18.40;;;10.07;;
3068;SDS011;1545;51.728;8.796;2023-08-31T03:49:51;36.93;;;10.17;;
3068;SDS011;1545;51.728;8.796;2023-08-31T03:52:17;19.33;;;9.17;;
3068;SDS011;1545;51.728;8.796;2023-08-31T03:54:42;29.83;;;10.57;;
3068;SDS011;1545;51.728;8.796;2023-08-31T03:57:08;29.67;;;11.13;;
3068;SDS011;1545;51.728;8.796;2023-08-31T03:59:33;25.93;;;11.83;;
3068;SDS011;1545;51.728;8.796;2023-08-31T04:01:59;27.30;;;12.60;;
3068;SDS011;1545;51.728;8.796;2023-08-31T04:04:25;29.27;;;12.73;;
3068;SDS011;1545;51.728;8.796;2023-08-31T04:06:50;23.13;;;13.23;;
3068;SDS011;1545;51.728;8.796;2023-08-31T04:09:16;30.20;;;15.53;;
3068;SDS011;1545;51.728;8.796;2023-08-31T04:11:42;37.50;;;15.73;;
3068;SDS011;1545;51.728;8.796;2023-08-31T04:14:07;37.83;;;16.90;;
3068;SDS011;1545;51.728;8.796;2023-08-31T04:16:33;35.40;;;15.77;;
3068;SDS011;1545;51.728;8.796;2023-08-31T04:18:58;38.63;;;16.73;;
3068;SDS011;1545;51.728;8.796;2023-08-31T04:21:24;39.47;;;17.23;;
3068;SDS011;1545;51.728;8.796;2023-08-31T04:23:49;43.17;;;17.47;;
3068;SDS011;1545;51.728;8.796;2023-08-31T04:26:15;44.03;;;17.23;;
3068;SDS011;1545;51.728;8.796;2023-08-31T04:28:42;38.43;;;17.17;;
3068;SDS011;1545;51.728;8.796;2023-08-31T04:31:08;34.23;;;17.67;;
3068;SDS011;1545;51.728;8.796;2023-08-31T04:33:34;36.53;;;17.53;;
3068;SDS011;1545;51.728;8.796;2023-08-31T04:36:02;37.07;;;18.97;;
3068;SDS011;1545;51.728;8.796;2023-08-31T04:38:29;45.93;;;19.50;;
3068;SDS011;1545;51.728;8.796;2023-08-31T04:40:59;36.43;;;18.83;;
3068;SDS011;1545;51.728;8.796;2023-08-31T04:43:25;54.20;;;19.27;;
3068;SDS011;1545;51.728;8.796;2023-08-31T04:45:54;39.90;;;20.60;;
3068;SDS011;1545;51.728;8.796;2023-08-31T04:48:20;42.07;;;19.03;;
3068;SDS011;1545;51.728;8.796;2023-08-31T04:50:45;36.33;;;19.20;;
3068;SDS011;1545;51.728;8.796;2023-08-31T04:53:11;41.23;;;19.90;;
3068;SDS011;1545;51.728;8.796;2023-08-31T04:55:37;36.50;;;18.73;;
3068;SDS011;1545;51.728;8.796;2023-08-31T04:58:03;37.90;;;20.07;;
3068;SDS011;1545;51.728;8.796;2023-08-31T05:00:28;37.57;;;18.97;;
3068;SDS011;1545;51.728;8.796;2023-08-31T05:02:55;37.63;;;19.63;;
3068;SDS011;1545;51.728;8.796;2023-08-31T05:05:20;44.03;;;20.00;;
3068;SDS011;1545;51.728;8.796;2023-08-31T05:07:46;47.77;;;20.50;;
3068;SDS011;1545;51.728;8.796;2023-08-31T05:10:12;32.57;;;19.10;;
3068;SDS011;1545;51.728;8.796;2023-08-31T05:12:37;42.53;;;20.07;;
3068;SDS011;1545;51.728;8.796;2023-08-31T05:15:03;37.40;;;20.03;;
3068;SDS011;1545;51.728;8.796;2023-08-31T05:17:29;34.97;;;20.03;;
3068;SDS011;1545;51.728;8.796;2023-08-31T05:19:55;42.73;;;20.83;;
3068;SDS011;1545;51.728;8.796;2023-08-31T05:22:21;41.20;;;20.37;;
3068;SDS011;1545;51.728;8.796;2023-08-31T05:24:47;40.50;;;21.07;;
3068;SDS011;1545;51.728;8.796;2023-08-31T05:27:13;36.20;;;21.67;;
3068;SDS011;1545;51.728;8.796;2023-08-31T05:29:38;46.67;;;22.10;;
3068;SDS011;1545;51.728;8.796;2023-08-31T05:32:04;38.00;;;21.90;;
3068;SDS011;1545;51.728;8.796;2023-08-31T05:34:29;36.30;;;21.13;;
3068;SDS011;1545;51.728;8.796;2023-08-31T05:36:57;36.23;;;22.70;;
3068;SDS011;1545;51.728;8.796;2023-08-31T05:39:23;40.17;;;21.17;;
3068;SDS011;1545;51.728;8.796;2023-08-31T05:41:48;35.23;;;21.40;;
3068;SDS011;1545;51.728;8.796;2023-08-31T05:44:14;41.67;;;21.60;;
3068;SDS011;1545;51.728;8.796;2023-08-31T05:46:39;31.83;;;19.30;;
3068;SDS011;1545;51.728;8.796;2023-08-31T05:49:06;33.80;;;20.10;;
3068;SDS011;1545;51.728;8.796;2023-08-31T05:51:32;34.97;;;19.60;;
3068;SDS011;1545;51.728;8.796;2023-08-31T05:53:57;34.57;;;19.20;;
3068;SDS011;1545;51.728;8.796;2023-08-31T05:56:23;36.27;;;19.93;;
3068;SDS011;1545;51.728;8.796;2023-08-31T05:58:48;30.37;;;20.10;;
3068;SDS011;1545;51.728;8.796;2023-08-31T06:01:15;28.90;;;19.47;;
3068;SDS011;1545;51.728;8.796;2023-08-31T06:03:41;34.43;;;18.03;;
3068;SDS011;1545;51.728;8.796;2023-08-31T06:06:06;28.40;;;17.63;;
3068;SDS011;1545;51.728;8.796;2023-08-31T06:08:32;35.53;;;17.77;;
3068;SDS011;1545;51.728;8.796;2023-08-31T06:10:58;28.40;;;16.83;;
3068;SDS011;1545;51.728;8.796;2023-08-31T06:13:23;30.37;;;16.13;;
3068;SDS011;1545;51.728;8.796;2023-08-31T06:15:49;24.70;;;14.90;;
3068;SDS011;1545;51.728;8.796;2023-08-31T06:18:14;19.20;;;13.90;;
3068;SDS011;1545;51.728;8.796;2023-08-31T06:20:40;21.33;;;13.60;;
3068;SDS011;1545;51.728;8.796;2023-08-31T06:23:06;21.00;;;13.50;;
3068;SDS011;1545;51.728;8.796;2023-08-31T06:25:31;26.57;;;12.77;;
3068;SDS011;1545;51.728;8.796;2023-08-31T06:27:57;19.07;;;12.23;;
3068;SDS011;1545;51.728;8.796;2023-08-31T06:30:23;18.83;;;12.37;;
3068;SDS011;1545;51.728;8.796;2023-08-31T06:32:49;17.37;;;11.20;;
3068;SDS011;1545;51.728;8.796;2023-08-31T06:35:15;18.33;;;11.07;;
3068;SDS011;1545;51.728;8.796;2023-08-31T06:37:41;17.43;;;10.70;;
3068;SDS011;1545;51.728;8.796;2023-08-31T06:40:07;18.27;;;10.93;;
3068;SDS011;1545;51.728;8.796;2023-08-31T06:42:34;15.33;;;9.70;;
3068;SDS011;1545;51.728;8.796;2023-08-31T06:45:06;14.00;;;9.47;;
3068;SDS011;1545;51.728;8.796;2023-08-31T06:47:33;16.07;;;9.60;;
3068;SDS011;1545;51.728;8.796;2023-08-31T06:50:00;16.13;;;9.57;;
3068;SDS011;1545;51.728;8.796;2023-08-31T06:52:25;16.23;;;9.80;;
3068;SDS011;1545;51.728;8.796;2023-08-31T06:54:51;14.53;;;9.33;;
3068;SDS011;1545;51.728;8.796;2023-08-31T06:57:21;12.10;;;8.80;;
3068;SDS011;1545;51.728;8.796;2023-08-31T06:59:47;21.30;;;10.20;;
3068;SDS011;1545;51.728;8.796;2023-08-31T07:02:13;16.77;;;10.47;;
3068;SDS011;1545;51.728;8.796;2023-08-31T07:04:39;17.97;;;10.07;;
3068;SDS011;1545;51.728;8.796;2023-08-31T07:07:05;17.30;;;10.90;;
3068;SDS011;1545;51.728;8.796;2023-08-31T07:09:32;20.20;;;12.27;;
3068;SDS011;1545;51.728;8.796;2023-08-31T07:11:57;22.03;;;12.37;;
3068;SDS011;1545;51.728;8.796;2023-08-31T07:14:23;18.10;;;11.47;;
3068;SDS011;1545;51.728;8.796;2023-08-31T07:16:49;22.73;;;12.50;;
3068;SDS011;1545;51.728;8.796;2023-08-31T07:19:15;20.23;;;10.80;;
3068;SDS011;1545;51.728;8.796;2023-08-31T07:21:40;15.37;;;10.47;;
3068;SDS011;1545;51.728;8.796;2023-08-31T07:24:06;20.00;;;9.87;;
3068;SDS011;1545;51.728;8.796;2023-08-31T07:26:32;14.53;;;9.13;;
3068;SDS011;1545;51.728;8.796;2023-08-31T07:28:57;15.83;;;9.27;;
3068;SDS011;1545;51.728;8.796;2023-08-31T07:31:23;10.70;;;7.27;;
3068;SDS011;1545;51.728;8.796;2023-08-31T07:33:48;13.57;;;6.67;;
3068;SDS011;1545;51.728;8.796;2023-08-31T07:36:14;10.50;;;5.70;;
3068;SDS011;1545;51.728;8.796;2023-08-31T07:38:40;12.77;;;5.63;;
3068;SDS011;1545;51.728;8.796;2023-08-31T07:41:06;9.93;;;5.17;;
3068;SDS011;1545;51.728;8.796;2023-08-31T07:43:31;9.57;;;4.33;;
3068;SDS011;1545;51.728;8.796;2023-08-31T07:45:57;5.30;;;3.93;;
3068;SDS011;1545;51.728;8.796;2023-08-31T07:48:22;9.60;;;3.73;;
3068;SDS011;1545;51.728;8.796;2023-08-31T07:50:48;8.53;;;3.77;;
3068;SDS011;1545;51.728;8.796;2023-08-31T07:53:14;13.83;;;4.07;;
3068;SDS011;1545;51.728;8.796;2023-08-31T07:55:40;6.10;;;4.10;;
3068;SDS011;1545;51.728;8.796;2023-08-31T07:58:05;6.40;;;3.70;;
3068;SDS011;1545;51.728;8.796;2023-08-31T08:00:31;8.90;;;3.60;;
3068;SDS011;1545;51.728;8.796;2023-08-31T08:02:56;6.47;;;3.50;;
3068;SDS011;1545;51.728;8.796;2023-08-31T08:05:22;4.80;;;3.60;;
3068;SDS011;1545;51.728;8.796;2023-08-31T08:07:48;9.80;;;4.03;;
3068;SDS011;1545;51.728;8.796;2023-08-31T08:10:13;6.47;;;3.90;;
3068;SDS011;1545;51.728;8.796;2023-08-31T08:12:40;11.03;;;3.70;;
3068;SDS011;1545;51.728;8.796;2023-08-31T08:15:08;9.77;;;4.03;;
3068;SDS011;1545;51.728;8.796;2023-08-31T08:17:34;10.43;;;4.23;;
3068;SDS011;1545;51.728;8.796;2023-08-31T08:20:01;8.60;;;4.80;;
3068;SDS011;1545;51.728;8.796;2023-08-31T08:22:28;7.53;;;4.00;;
3068;SDS011;1545;51.728;8.796;2023-08-31T08:24:54;8.87;;;4.50;;
3068;SDS011;1545;51.728;8.796;2023-08-31T08:27:19;8.90;;;4.90;;
3068;SDS011;1545;51.728;8.796;2023-08-31T08:29:45;10.23;;;5.77;;
3068;SDS011;1545;51.728;8.796;2023-08-31T08:32:11;11.70;;;5.93;;
3068;SDS011;1545;51.728;8.796;2023-08-31T08:34:37;11.27;;;6.30;;
3068;SDS011;1545;51.728;8.796;2023-08-31T08:37:02;11.77;;;6.60;;
3068;SDS011;1545;51.728;8.796;2023-08-31T08:39:28;10.67;;;6.80;;
3068;SDS011;1545;51.728;8.796;2023-08-31T08:41:54;16.77;;;7.50;;
3068;SDS011;1545;51.728;8.796;2023-08-31T08:44:24;11.37;;;7.17;;
3068;SDS011;1545;51.728;8.796;2023-08-31T08:46:53;11.03;;;6.77;;
3068;SDS011;1545;51.728;8.796;2023-08-31T08:49:19;12.40;;;6.80;;
3068;SDS011;1545;51.728;8.796;2023-08-31T08:51:46;9.73;;;6.03;;
3068;SDS011;1545;51.728;8.796;2023-08-31T08:54:15;10.50;;;5.63;;
3068;SDS011;1545;51.728;8.796;2023-08-31T08:56:42;12.03;;;5.40;;
3068;SDS011;1545;51.728;8.796;2023-08-31T08:59:07;7.50;;;5.07;;
3068;SDS011;1545;51.728;8.796;2023-08-31T09:01:37;8.83;;;4.90;;
3068;SDS011;1545;51.728;8.796;2023-08-31T09:04:03;14.03;;;5.03;;
3068;SDS011;1545;51.728;8.796;2023-08-31T09:06:29;8.00;;;4.77;;
3068;SDS011;1545;51.728;8.796;2023-08-31T09:08:55;9.43;;;5.07;;
3068;SDS011;1545;51.728;8.796;2023-08-31T09:11:22;7.63;;;5.00;;
3068;SDS011;1545;51.728;8.796;2023-08-31T09:13:47;7.57;;;4.47;;
3068;SDS011;1545;51.728;8.796;2023-08-31T09:16:28;8.67;;;5.00;;
3068;SDS011;1545;51.728;8.796;2023-08-31T09:18:54;6.53;;;4.27;;
3068;SDS011;1545;51.728;8.796;2023-08-31T09:21:20;10.27;;;4.40;;
3068;SDS011;1545;51.728;8.796;2023-08-31T09:23:56;8.33;;;4.63;;
3068;SDS011;1545;51.728;8.796;2023-08-31T09:26:22;8.63;;;5.33;;
3068;SDS011;1545;51.728;8.796;2023-08-31T09:28:48;11.23;;;5.30;;
3068;SDS011;1545;51.728;8.796;2023-08-31T09:31:14;9.53;;;5.07;;
3068;SDS011;1545;51.728;8.796;2023-08-31T09:33:40;10.07;;;5.20;;
3068;SDS011;1545;51.728;8.796;2023-08-31T09:36:17;10.17;;;5.50;;
3068;SDS011;1545;51.728;8.796;2023-08-31T09:38:45;12.20;;;5.27;;
3068;SDS011;1545;51.728;8.796;2023-08-31T09:41:11;11.97;;;5.60;;
3068;SDS011;1545;51.728;8.796;2023-08-31T09:43:37;10.23;;;6.67;;
3068;SDS011;1545;51.728;8.796;2023-08-31T09:46:04;13.23;;;7.10;;
3068;SDS011;1545;51.728;8.796;2023-08-31T09:48:30;10.60;;;6.07;;
3068;SDS011;1545;51.728;8.796;2023-08-31T09:50:56;9.57;;;5.90;;
3068;SDS011;1545;51.728;8.796;2023-08-31T09:53:25;8.40;;;5.40;;
3068;SDS011;1545;51.728;8.796;2023-08-31T09:55:54;8.87;;;5.30;;
3068;SDS011;1545;51.728;8.796;2023-08-31T09:58:21;8.17;;;5.20;;
3068;SDS011;1545;51.728;8.796;2023-08-31T10:00:51;11.53;;;5.70;;
3068;SDS011;1545;51.728;8.796;2023-08-31T10:03:17;13.00;;;5.40;;
3068;SDS011;1545;51.728;8.796;2023-08-31T10:05:46;10.83;;;5.00;;
3068;SDS011;1545;51.728;8.796;2023-08-31T10:08:12;9.40;;;5.20;;
3068;SDS011;1545;51.728;8.796;2023-08-31T10:10:39;10.47;;;5.60;;
3068;SDS011;1545;51.728;8.796;2023-08-31T10:13:05;12.27;;;6.60;;
3068;SDS011;1545;51.728;8.796;2023-08-31T10:15:32;8.93;;;5.03;;
3068;SDS011;1545;51.728;8.796;2023-08-31T10:18:01;13.87;;;5.50;;
3068;SDS011;1545;51.728;8.796;2023-08-31T10:20:31;10.07;;;4.53;;
3068;SDS011;1545;51.728;8.796;2023-08-31T10:22:58;13.23;;;5.47;;
3068;SDS011;1545;51.728;8.796;2023-08-31T10:28:17;8.80;;;4.80;;
3068;SDS011;1545;51.728;8.796;2023-08-31T10:31:06;10.57;;;4.77;;
3068;SDS011;1545;51.728;8.796;2023-08-31T10:33:34;22.50;;;5.13;;
3068;SDS011;1545;51.728;8.796;2023-08-31T10:39:28;10.07;;;5.03;;
3068;SDS011;1545;51.728;8.796;2023-08-31T10:42:03;9.40;;;4.40;;
3068;SDS011;1545;51.728;8.796;2023-08-31T10:44:32;6.67;;;4.10;;
3068;SDS011;1545;51.728;8.796;2023-08-31T10:47:03;8.00;;;3.90;;
3068;SDS011;1545;51.728;8.796;2023-08-31T10:49:29;6.70;;;3.87;;
3068;SDS011;1545;51.728;8.796;2023-08-31T10:54:42;6.87;;;3.97;;
3068;SDS011;1545;51.728;8.796;2023-08-31T10:57:07;7.63;;;4.20;;
3068;SDS011;1545;51.728;8.796;2023-08-31T10:59:52;11.13;;;4.30;;
3068;SDS011;1545;51.728;8.796;2023-08-31T11:02:33;9.33;;;4.47;;
3068;SDS011;1545;51.728;8.796;2023-08-31T11:05:11;7.43;;;3.93;;
3068;SDS011;1545;51.728;8.796;2023-08-31T11:07:44;9.03;;;4.03;;
3068;SDS011;1545;51.728;8.796;2023-08-31T11:12:49;8.73;;;3.60;;
3068;SDS011;1545;51.728;8.796;2023-08-31T11:15:19;13.80;;;3.83;;
3068;SDS011;1545;51.728;8.796;2023-08-31T11:17:46;9.03;;;4.30;;
3068;SDS011;1545;51.728;8.796;2023-08-31T11:20:14;7.60;;;4.13;;
3068;SDS011;1545;51.728;8.796;2023-08-31T11:22:42;9.60;;;3.67;;
3068;SDS011;1545;51.728;8.796;2023-08-31T11:25:08;6.37;;;4.43;;
3068;SDS011;1545;51.728;8.796;2023-08-31T11:27:34;7.47;;;4.77;;
3068;SDS011;1545;51.728;8.796;2023-08-31T11:30:00;11.60;;;4.30;;
3068;SDS011;1545;51.728;8.796;2023-08-31T11:32:25;11.70;;;5.30;;
3068;SDS011;1545;51.728;8.796;2023-08-31T11:34:51;10.23;;;4.57;;
3068;SDS011;1545;51.728;8.796;2023-08-31T11:37:16;8.47;;;4.50;;
3068;SDS011;1545;51.728;8.796;2023-08-31T11:39:51;12.33;;;5.07;;
3068;SDS011;1545;51.728;8.796;2023-08-31T11:42:18;12.70;;;4.83;;
3068;SDS011;1545;51.728;8.796;2023-08-31T11:44:47;13.83;;;6.03;;
3068;SDS011;1545;51.728;8.796;2023-08-31T11:47:15;13.80;;;7.00;;
3068;SDS011;1545;51.728;8.796;2023-08-31T11:49:41;17.07;;;7.97;;
3068;SDS011;1545;51.728;8.796;2023-08-31T11:52:09;11.77;;;8.30;;
3068;SDS011;1545;51.728;8.796;2023-08-31T11:54:39;11.90;;;6.47;;
3068;SDS011;1545;51.728;8.796;2023-08-31T11:57:08;12.73;;;7.10;;
3068;SDS011;1545;51.728;8.796;2023-08-31T11:59:35;6.57;;;4.40;;
3068;SDS011;1545;51.728;8.796;2023-08-31T12:02:04;7.80;;;5.07;;
3068;SDS011;1545;51.728;8.796;2023-08-31T12:04:32;7.57;;;4.00;;
3068;SDS011;1545;51.728;8.796;2023-08-31T12:07:01;5.97;;;4.27;;
3068;SDS011;1545;51.728;8.796;2023-08-31T12:09:31;5.40;;;4.40;;
3068;SDS011;1545;51.728;8.796;2023-08-31T12:11:57;8.80;;;4.60;;
3068;SDS011;1545;51.728;8.796;2023-08-31T12:14:24;11.97;;;6.70;;
3068;SDS011;1545;51.728;8.796;2023-08-31T12:16:51;5.47;;;4.63;;
3068;SDS011;1545;51.728;8.796;2023-08-31T12:19:30;9.13;;;4.53;;
3068;SDS011;1545;51.728;8.796;2023-08-31T12:21:56;9.90;;;5.67;;
3068;SDS011;1545;51.728;8.796;2023-08-31T12:24:22;8.23;;;4.50;;
3068;SDS011;1545;51.728;8.796;2023-08-31T12:26:48;9.07;;;4.93;;
3068;SDS011;1545;51.728;8.796;2023-08-31T12:29:15;6.17;;;4.80;;
3068;SDS011;1545;51.728;8.796;2023-08-31T12:31:41;7.30;;;5.77;;
3068;SDS011;1545;51.728;8.796;2023-08-31T12:34:08;7.40;;;4.30;;
3068;SDS011;1545;51.728;8.796;2023-08-31T12:36:34;7.93;;;4.43;;
3068;SDS011;1545;51.728;8.796;2023-08-31T12:39:01;6.67;;;4.47;;
3068;SDS011;1545;51.728;8.796;2023-08-31T12:41:30;8.63;;;4.83;;
3068;SDS011;1545;51.728;8.796;2023-08-31T12:43:56;6.67;;;4.17;;
3068;SDS011;1545;51.728;8.796;2023-08-31T12:46:22;8.30;;;4.30;;
3068;SDS011;1545;51.728;8.796;2023-08-31T12:48:48;8.40;;;4.67;;
3068;SDS011;1545;51.728;8.796;2023-08-31T12:51:14;5.37;;;3.83;;
3068;SDS011;1545;51.728;8.796;2023-08-31T12:53:40;6.27;;;4.07;;
3068;SDS011;1545;51.728;8.796;2023-08-31T12:56:06;5.73;;;3.87;;
3068;SDS011;1545;51.728;8.796;2023-08-31T12:58:32;6.47;;;4.00;;
3068;SDS011;1545;51.728;8.796;2023-08-31T13:00:58;9.50;;;4.70;;
3068;SDS011;1545;51.728;8.796;2023-08-31T13:03:24;9.77;;;4.77;;
3068;SDS011;1545;51.728;8.796;2023-08-31T13:05:50;5.70;;;4.37;;
3068;SDS011;1545;51.728;8.796;2023-08-31T13:08:15;7.13;;;4.10;;
3068;SDS011;1545;51.728;8.796;2023-08-31T13:10:41;7.63;;;4.37;;
3068;SDS011;1545;51.728;8.796;2023-08-31T13:13:07;9.70;;;4.30;;
3068;SDS011;1545;51.728;8.796;2023-08-31T13:15:33;5.60;;;4.17;;
3068;SDS011;1545;51.728;8.796;2023-08-31T13:17:58;7.17;;;4.40;;
3068;SDS011;1545;51.728;8.796;2023-08-31T13:20:24;6.77;;;4.20;;
3068;SDS011;1545;51.728;8.796;2023-08-31T13:22:50;7.03;;;4.10;;
3068;SDS011;1545;51.728;8.796;2023-08-31T13:25:16;7.67;;;4.17;;
3068;SDS011;1545;51.728;8.796;2023-08-31T13:27:42;13.53;;;4.33;;
3068;SDS011;1545;51.728;8.796;2023-08-31T13:30:09;6.33;;;3.67;;
3068;SDS011;1545;51.728;8.796;2023-08-31T13:32:37;9.33;;;3.97;;
3068;SDS011;1545;51.728;8.796;2023-08-31T13:35:03;6.77;;;4.00;;
3068;SDS011;1545;51.728;8.796;2023-08-31T13:37:32;8.20;;;4.17;;
3068;SDS011;1545;51.728;8.796;2023-08-31T13:39:58;9.33;;;3.80;;
3068;SDS011;1545;51.728;8.796;2023-08-31T13:42:25;4.83;;;3.90;;
3068;SDS011;1545;51.728;8.796;2023-08-31T13:44:50;7.93;;;4.13;;
3068;SDS011;1545;51.728;8.796;2023-08-31T13:47:16;8.40;;;4.70;;
3068;SDS011;1545;51.728;8.796;2023-08-31T13:49:41;8.70;;;4.47;;
3068;SDS011;1545;51.728;8.796;2023-08-31T13:52:07;8.37;;;3.97;;
3068;SDS011;1545;51.728;8.796;2023-08-31T13:54:34;7.13;;;4.20;;
3068;SDS011;1545;51.728;8.796;2023-08-31T13:57:00;6.63;;;4.30;;
3068;SDS011;1545;51.728;8.796;2023-08-31T13:59:26;6.70;;;4.13;;
3068;SDS011;1545;51.728;8.796;2023-08-31T14:01:54;9.93;;;4.60;;
3068;SDS011;1545;51.728;8.796;2023-08-31T14:04:20;10.83;;;3.80;;
3068;SDS011;1545;51.728;8.796;2023-08-31T14:06:47;8.67;;;4.30;;
3068;SDS011;1545;51.728;8.796;2023-08-31T14:09:13;9.50;;;4.07;;
3068;SDS011;1545;51.728;8.796;2023-08-31T14:11:39;8.97;;;4.07;;
3068;SDS011;1545;51.728;8.796;2023-08-31T14:14:05;9.77;;;4.70;;
3068;SDS011;1545;51.728;8.796;2023-08-31T14:16:34;7.33;;;4.30;;
3068;SDS011;1545;51.728;8.796;2023-08-31T14:19:01;9.57;;;3.97;;
3068;SDS011;1545;51.728;8.796;2023-08-31T14:21:27;10.40;;;4.33;;
3068;SDS011;1545;51.728;8.796;2023-08-31T14:23:53;7.50;;;4.13;;
3068;SDS011;1545;51.728;8.796;2023-08-31T14:26:21;7.73;;;3.87;;
3068;SDS011;1545;51.728;8.796;2023-08-31T14:28:50;11.43;;;4.57;;
3068;SDS011;1545;51.728;8.796;2023-08-31T14:31:16;9.33;;;3.70;;
3068;SDS011;1545;51.728;8.796;2023-08-31T14:33:42;8.30;;;4.60;;
3068;SDS011;1545;51.728;8.796;2023-08-31T14:36:08;11.43;;;4.10;;
3068;SDS011;1545;51.728;8.796;2023-08-31T14:38:33;6.37;;;4.30;;
3068;SDS011;1545;51.728;8.796;2023-08-31T14:40:59;5.40;;;3.33;;
3068;SDS011;1545;51.728;8.796;2023-08-31T14:43:24;5.33;;;3.20;;
3068;SDS011;1545;51.728;8.796;2023-08-31T14:45:50;4.40;;;2.97;;
3068;SDS011;1545;51.728;8.796;2023-08-31T14:48:15;8.10;;;4.30;;
3068;SDS011;1545;51.728;8.796;2023-08-31T14:50:42;14.07;;;4.80;;
3068;SDS011;1545;51.728;8.796;2023-08-31T14:53:08;10.97;;;4.30;;
3068;SDS011;1545;51.728;8.796;2023-08-31T14:55:34;8.67;;;4.70;;
3068;SDS011;1545;51.728;8.796;2023-08-31T14:57:59;8.93;;;4.80;;
3068;SDS011;1545;51.728;8.796;2023-08-31T15:00:25;8.53;;;5.17;;
3068;SDS011;1545;51.728;8.796;2023-08-31T15:02:50;8.13;;;5.53;;
3068;SDS011;1545;51.728;8.796;2023-08-31T15:05:16;11.27;;;6.37;;
3068;SDS011;1545;51.728;8.796;2023-08-31T15:07:41;10.97;;;7.00;;
3068;SDS011;1545;51.728;8.796;2023-08-31T15:10:07;14.60;;;8.00;;
3068;SDS011;1545;51.728;8.796;2023-08-31T15:12:33;14.20;;;8.37;;
3068;SDS011;1545;51.728;8.796;2023-08-31T15:14:59;16.57;;;9.27;;
3068;SDS011;1545;51.728;8.796;2023-08-31T15:17:24;13.67;;;8.70;;